createdAt,value
2023-05-08T00:03:57.946Z,10.91
2023-05-08T00:09:01.136Z,11.07
2023-05-08T00:14:04.086Z,11.05
2023-05-08T00:19:08.239Z,11.32
2023-05-08T00:24:10.996Z,11.22
2023-05-08T00:29:13.862Z,11.29
2023-05-08T00:34:17.326Z,11.00
2023-05-08T00:39:20.142Z,11.31
2023-05-08T00:44:24.076Z,11.13
2023-05-08T00:49:27.864Z,11.17
2023-05-08T00:54:31.327Z,11.10
2023-05-08T00:59:35.534Z,11.08
2023-05-08T01:04:39.501Z,11.03
2023-05-08T01:09:42.049Z,10.98
2023-05-08T01:15:04.096Z,10.82
2023-05-08T01:20:25.579Z,10.97
2023-05-08T01:25:57.927Z,10.96
2023-05-08T01:31:40.331Z,10.79
2023-05-08T01:36:49.736Z,10.73
2023-05-08T01:42:19.032Z,10.47
2023-05-08T01:47:26.340Z,10.55
2023-05-08T01:52:43.316Z,10.59
2023-05-08T01:57:49.740Z,10.61
2023-05-08T02:02:54.672Z,10.41
2023-05-08T02:07:59.011Z,10.52
2023-05-08T02:13:02.776Z,10.40
2023-05-08T02:18:08.953Z,10.35
2023-05-08T02:23:13.156Z,10.37
2023-05-08T02:28:17.296Z,10.48
2023-05-08T02:33:20.953Z,10.21
2023-05-08T02:38:26.558Z,10.49
2023-05-08T02:43:29.024Z,10.51
2023-05-08T02:48:39.585Z,10.43
2023-05-08T02:53:52.317Z,10.46
2023-05-08T02:59:47.479Z,10.47
2023-05-08T03:05:03.568Z,10.33
2023-05-08T03:10:11.035Z,10.20
2023-05-08T03:15:21.856Z,10.25
2023-05-08T03:20:27.162Z,10.07
2023-05-08T03:25:30.484Z,10.02
2023-05-08T03:30:36.824Z,10.10
2023-05-08T03:35:43.757Z,9.74
2023-05-08T03:40:47.260Z,10.03
2023-05-08T03:45:52.055Z,9.98
2023-05-08T03:50:55.342Z,9.98
2023-05-08T03:55:59.833Z,10.15
2023-05-08T04:01:14.960Z,10.09
2023-05-08T04:06:52.845Z,10.37
2023-05-08T04:12:26.859Z,10.65
2023-05-08T04:17:44.448Z,11.18
2023-05-08T04:22:51.136Z,11.48
2023-05-08T04:27:56.311Z,11.73
2023-05-08T04:33:00.486Z,11.74
2023-05-08T04:38:03.996Z,12.43
2023-05-08T04:43:07.950Z,13.03
2023-05-08T04:48:10.819Z,12.80
2023-05-08T04:53:13.369Z,13.09
2023-05-08T04:58:16.546Z,13.30
2023-05-08T05:03:20.156Z,13.28
2023-05-08T05:08:24.125Z,13.47
2023-05-08T05:13:27.343Z,13.71
2023-05-08T05:18:30.912Z,13.67
2023-05-08T05:23:34.646Z,13.20
2023-05-08T05:28:37.939Z,13.47
2023-05-08T05:33:42.597Z,13.88
2023-05-08T05:38:46.104Z,13.90
2023-05-08T05:43:49.266Z,13.72
2023-05-08T05:48:52.146Z,13.65
2023-05-08T05:53:54.711Z,14.06
2023-05-08T05:58:58.474Z,15.17
2023-05-08T06:04:01.894Z,15.34
2023-05-08T06:09:07.766Z,15.39
2023-05-08T06:14:11.324Z,15.43
2023-05-08T06:19:14.990Z,14.84
2023-05-08T06:24:18.646Z,15.06
2023-05-08T06:29:20.996Z,14.85
2023-05-08T06:34:23.478Z,15.02
2023-05-08T06:39:26.992Z,15.49
2023-05-08T06:44:29.293Z,15.95
2023-05-08T06:49:31.706Z,16.49
2023-05-08T06:54:34.579Z,16.65
2023-05-08T06:59:37.511Z,16.26
2023-05-08T07:04:40.293Z,16.19
2023-05-08T07:09:43.550Z,16.34
2023-05-08T07:14:46.105Z,16.26
2023-05-08T07:19:52.718Z,15.98
2023-05-08T07:24:55.020Z,15.77
2023-05-08T07:30:04.553Z,15.84
2023-05-08T07:35:12.197Z,15.52
2023-05-08T07:40:14.810Z,15.46
2023-05-08T07:45:17.565Z,15.42
2023-05-08T07:50:21.784Z,15.14
2023-05-08T07:55:24.767Z,15.02
2023-05-08T08:00:30.647Z,14.95
2023-05-08T08:05:33.504Z,14.96
2023-05-08T08:10:37.047Z,14.93
2023-05-08T08:15:39.964Z,14.70
2023-05-08T08:20:43.036Z,14.92
2023-05-08T08:25:45.885Z,14.79
2023-05-08T08:30:49.424Z,15.01
2023-05-08T08:35:52.510Z,14.91
2023-05-08T08:40:56.252Z,14.90
2023-05-08T08:46:00.290Z,15.02
2023-05-08T08:51:08.037Z,15.02
2023-05-08T08:56:12.580Z,14.97
2023-05-08T09:01:18.781Z,15.12
2023-05-08T09:06:22.345Z,14.95
2023-05-08T09:11:26.016Z,15.02
2023-05-08T09:16:29.600Z,14.69
2023-05-08T09:21:32.856Z,14.59
2023-05-08T09:26:37.246Z,14.75
2023-05-08T09:31:42.326Z,14.65
2023-05-08T09:36:46.012Z,14.51
2023-05-08T09:42:06.229Z,14.53
2023-05-08T09:47:19.555Z,14.50
2023-05-08T09:52:23.925Z,14.54
2023-05-08T09:57:27.414Z,14.47
2023-05-08T10:02:31.308Z,14.57
2023-05-08T10:07:37.345Z,14.62
2023-05-08T10:12:42.610Z,14.62
2023-05-08T10:17:55.784Z,14.79
2023-05-08T10:22:59.889Z,14.84
2023-05-08T10:28:25.295Z,15.14
2023-05-08T10:33:34.459Z,15.19
2023-05-08T10:38:38.727Z,15.42
2023-05-08T10:43:45.058Z,15.70
2023-05-08T10:49:10.216Z,15.84
2023-05-08T10:54:18.866Z,15.57
2023-05-08T10:59:24.551Z,15.77
2023-05-08T11:04:29.092Z,15.58
2023-05-08T11:09:47.720Z,15.79
2023-05-08T11:15:09.965Z,15.78
2023-05-08T11:20:12.671Z,15.36
2023-05-08T11:25:15.742Z,15.37
2023-05-08T11:30:33.357Z,15.51
2023-05-08T11:35:48.407Z,15.27
2023-05-08T11:41:00.723Z,15.12
2023-05-08T11:46:16.370Z,15.03
2023-05-08T11:51:22.311Z,15.14
2023-05-08T11:56:24.945Z,15.08
2023-05-08T12:01:29.278Z,14.96
2023-05-08T12:06:33.292Z,15.09
2023-05-08T12:11:36.490Z,15.09
2023-05-08T12:16:40.035Z,15.19
2023-05-08T12:21:49.746Z,15.18
2023-05-08T12:26:58.954Z,15.27
2023-05-08T12:32:01.458Z,14.75
2023-05-08T12:37:05.220Z,15.38
2023-05-08T12:42:09.255Z,15.29
2023-05-08T12:47:12.843Z,15.46
2023-05-08T12:52:16.578Z,15.36
2023-05-08T12:57:21.594Z,15.28
2023-05-08T13:02:25.818Z,15.13
2023-05-08T13:07:32.836Z,14.90
2023-05-08T13:12:35.249Z,14.74
2023-05-08T13:17:37.882Z,14.75
2023-05-08T13:22:40.669Z,14.59
2023-05-08T13:27:43.092Z,14.56
2023-05-08T13:32:45.915Z,14.53
2023-05-08T13:37:49.853Z,14.51
2023-05-08T13:42:53.039Z,14.53
2023-05-08T13:47:56.798Z,14.47
2023-05-08T13:52:59.812Z,14.51
2023-05-08T13:58:02.380Z,14.39
2023-05-08T14:03:05.035Z,14.27
2023-05-08T14:08:08.182Z,14.12
2023-05-08T14:13:11.473Z,14.03
2023-05-08T14:18:14.009Z,14.05
2023-05-08T14:23:16.561Z,13.76
2023-05-08T14:28:18.936Z,14.00
2023-05-08T14:33:21.391Z,13.75
2023-05-08T14:38:23.883Z,14.04
2023-05-08T14:43:26.321Z,13.66
2023-05-08T14:48:29.805Z,13.75
2023-05-08T14:53:32.816Z,13.84
2023-05-08T14:58:35.717Z,13.78
2023-05-08T15:03:39.342Z,13.83
2023-05-08T15:08:42.524Z,13.73
2023-05-08T15:13:45.031Z,13.62
2023-05-08T15:18:47.356Z,13.51
2023-05-08T15:23:49.795Z,13.75
2023-05-08T15:28:52.133Z,13.60
2023-05-08T15:33:57.416Z,13.79
2023-05-08T15:39:00.109Z,13.67
2023-05-08T15:44:02.881Z,13.76
2023-05-08T15:49:05.789Z,13.81
2023-05-08T15:54:09.237Z,13.79
2023-05-08T15:59:12.044Z,13.65
2023-05-08T16:04:14.818Z,13.87
2023-05-08T16:09:17.380Z,13.70
2023-05-08T16:14:20.865Z,13.66
2023-05-08T16:19:23.977Z,13.69
2023-05-08T16:24:26.517Z,13.69
2023-05-08T16:29:29.047Z,13.69
2023-05-08T16:34:31.456Z,13.84
2023-05-08T16:39:35.228Z,13.83
2023-05-08T16:44:37.661Z,13.63
2023-05-08T16:49:40.840Z,13.71
2023-05-08T16:54:43.134Z,13.82
2023-05-08T16:59:47.295Z,13.62
2023-05-08T17:04:50.783Z,13.61
2023-05-08T17:09:59.656Z,13.65
2023-05-08T17:15:02.401Z,13.59
2023-05-08T17:20:09.340Z,13.72
2023-05-08T17:25:12.695Z,13.74
2023-05-08T17:30:17.037Z,13.69
2023-05-08T17:35:19.883Z,13.64
2023-05-08T17:40:22.510Z,13.59
2023-05-08T17:45:24.985Z,13.39
2023-05-08T17:50:27.192Z,13.41
2023-05-08T17:55:31.670Z,13.48
2023-05-08T18:00:33.985Z,13.45
2023-05-08T18:05:37.945Z,12.97
2023-05-08T18:10:41.305Z,13.17
2023-05-08T18:15:46.957Z,13.31
2023-05-08T18:20:49.560Z,13.26
2023-05-08T18:25:52.036Z,13.26
2023-05-08T18:30:54.624Z,13.33
2023-05-08T18:35:56.975Z,13.23
2023-05-08T18:41:02.264Z,13.10
2023-05-08T18:46:09.462Z,13.24
2023-05-08T18:51:11.978Z,13.02
2023-05-08T18:56:14.447Z,13.23
2023-05-08T19:01:21.454Z,13.03
2023-05-08T19:06:24.272Z,12.66
2023-05-08T19:11:26.646Z,12.98
2023-05-08T19:16:29.483Z,13.07
2023-05-08T19:21:32.112Z,13.07
2023-05-08T19:26:34.501Z,12.99
2023-05-08T19:31:36.914Z,12.89
2023-05-08T19:36:40.269Z,13.02
2023-05-08T19:41:44.078Z,12.88
2023-05-08T19:46:46.814Z,12.96
2023-05-08T19:51:49.756Z,13.01
2023-05-08T19:56:52.037Z,12.54
2023-05-08T20:01:54.492Z,12.90
2023-05-08T20:06:58.592Z,12.86
2023-05-08T20:12:01.659Z,12.78
2023-05-08T20:17:04.617Z,12.68
2023-05-08T20:22:07.415Z,12.64
2023-05-08T20:27:10.459Z,12.86
2023-05-08T20:32:19.327Z,12.77
2023-05-08T20:37:21.799Z,12.71
2023-05-08T20:42:24.557Z,12.75
2023-05-08T20:47:27.757Z,12.78
2023-05-08T20:52:32.877Z,12.80
2023-05-08T20:57:35.795Z,12.39
2023-05-08T21:02:41.955Z,12.69
2023-05-08T21:07:44.333Z,12.71
2023-05-08T21:12:47.275Z,12.57
2023-05-08T21:17:50.901Z,12.62
2023-05-08T21:22:53.841Z,12.26
2023-05-08T21:27:56.318Z,12.37
2023-05-08T21:32:59.933Z,12.55
2023-05-08T21:38:02.343Z,12.37
2023-05-08T21:43:05.794Z,12.54
2023-05-08T21:48:10.381Z,12.55
2023-05-08T21:53:12.719Z,12.46
2023-05-08T21:58:15.609Z,12.47
2023-05-08T22:03:18.591Z,12.39
2023-05-08T22:08:23.640Z,12.04
2023-05-08T22:13:26.564Z,12.31
2023-05-08T22:18:30.252Z,12.18
2023-05-08T22:23:36.171Z,12.15
2023-05-08T22:28:39.640Z,11.95
2023-05-08T22:33:41.967Z,12.16
2023-05-08T22:38:46.255Z,11.90
2023-05-08T22:43:49.200Z,12.03
2023-05-08T22:48:54.636Z,11.76
2023-05-08T22:53:57.064Z,11.98
2023-05-08T22:58:59.375Z,11.99
2023-05-08T23:04:02.103Z,11.82
2023-05-08T23:09:04.901Z,11.88
2023-05-08T23:14:07.327Z,11.91
2023-05-08T23:19:10.346Z,11.68
2023-05-08T23:24:12.829Z,11.88
2023-05-08T23:29:15.726Z,11.80
2023-05-08T23:34:18.053Z,11.08
2023-05-08T23:39:22.001Z,11.72
2023-05-08T23:44:24.418Z,11.59
2023-05-08T23:49:26.796Z,11.57
2023-05-08T23:54:29.435Z,11.38
2023-05-08T23:59:33.241Z,11.25
